createdAt,value
2022-11-25T00:01:18.808Z,983.9
2022-11-25T00:03:19.953Z,983.8
2022-11-25T00:05:21.297Z,983.9
2022-11-25T00:07:22.998Z,983.8
2022-11-25T00:09:24.633Z,983.9
2022-11-25T00:11:25.960Z,983.9
2022-11-25T00:13:27.924Z,983.8
2022-11-25T00:15:29.122Z,984
2022-11-25T00:17:30.900Z,983.9
2022-11-25T00:19:32.877Z,983.9
2022-11-25T00:21:34.529Z,983.9
2022-11-25T00:23:36.136Z,983.8
2022-11-25T00:25:37.866Z,983.9
2022-11-25T00:27:39.323Z,983.8
2022-11-25T00:29:41.330Z,983.8
2022-11-25T00:31:42.436Z,983.8
2022-11-25T00:33:43.982Z,983.7
2022-11-25T00:35:45.491Z,983.7
2022-11-25T00:37:47.530Z,983.7
2022-11-25T00:39:49.202Z,983.7
2022-11-25T00:41:50.416Z,983.7
2022-11-25T00:43:51.567Z,983.6
2022-11-25T00:45:52.883Z,983.7
2022-11-25T00:47:54.415Z,983.7
2022-11-25T00:49:55.893Z,983.7
2022-11-25T00:51:57.778Z,983.7
2022-11-25T00:53:59.647Z,983.8
2022-11-25T00:56:01.280Z,983.6
2022-11-25T00:58:02.842Z,983.7
2022-11-25T01:00:04.218Z,983.6
2022-11-25T01:02:05.350Z,983.6
2022-11-25T01:04:06.379Z,983.7
2022-11-25T01:08:09.990Z,983.7
2022-11-25T01:10:11.509Z,983.8
2022-11-25T01:12:12.881Z,983.8
2022-11-25T01:14:14.598Z,983.8
2022-11-25T01:16:16.471Z,983.9
2022-11-25T01:18:17.741Z,983.8
2022-11-25T01:20:18.946Z,983.9
2022-11-25T01:22:20.621Z,983.9
2022-11-25T01:24:23.880Z,983.9
2022-11-25T01:26:23.864Z,983.9
2022-11-25T01:28:25.803Z,984
2022-11-25T01:30:27.458Z,984
2022-11-25T01:32:28.713Z,984
2022-11-25T01:34:30.491Z,984
2022-11-25T01:36:31.925Z,983.9
2022-11-25T01:38:33.940Z,983.9
2022-11-25T01:40:35.674Z,983.9
2022-11-25T01:42:37.253Z,984
2022-11-25T01:44:38.802Z,984
2022-11-25T01:46:40.603Z,984
2022-11-25T01:50:43.023Z,984
2022-11-25T01:52:44.822Z,984
2022-11-25T01:54:46.804Z,984
2022-11-25T01:56:47.983Z,984
2022-11-25T01:58:49.792Z,984.1
2022-11-25T02:00:51.886Z,984.1
2022-11-25T02:02:53.060Z,984
2022-11-25T02:04:55.103Z,984
2022-11-25T02:06:57.098Z,983.9
2022-11-25T02:08:58.456Z,983.8
2022-11-25T02:10:59.984Z,983.8
2022-11-25T02:13:01.884Z,983.8
2022-11-25T02:15:02.979Z,983.8
2022-11-25T02:17:04.114Z,983.8
2022-11-25T02:19:05.658Z,983.8
2022-11-25T02:21:07.472Z,983.9
2022-11-25T02:23:09.049Z,983.8
2022-11-25T02:25:10.218Z,983.9
2022-11-25T02:27:11.997Z,983.9
2022-11-25T02:29:13.478Z,983.8
2022-11-25T02:33:16.864Z,983.8
2022-11-25T02:35:18.485Z,983.8
2022-11-25T02:37:20.183Z,983.8
2022-11-25T02:39:21.319Z,983.8
2022-11-25T02:41:23.279Z,983.8
2022-11-25T02:43:24.658Z,983.9
2022-11-25T02:45:26.035Z,983.8
2022-11-25T02:47:27.696Z,983.9
2022-11-25T02:49:28.844Z,983.9
2022-11-25T02:51:30.344Z,983.8
2022-11-25T02:53:32.213Z,983.9
2022-11-25T02:55:33.732Z,983.9
2022-11-25T02:57:35.470Z,983.8
2022-11-25T02:59:36.604Z,983.8
2022-11-25T03:01:38.840Z,983.8
2022-11-25T03:03:40.321Z,983.8
2022-11-25T03:05:41.439Z,983.8
2022-11-25T03:07:42.744Z,983.9
2022-11-25T03:09:43.858Z,983.9
2022-11-25T03:11:44.910Z,983.9
2022-11-25T03:13:46.720Z,983.9
2022-11-25T03:15:48.001Z,984
2022-11-25T03:17:49.867Z,983.9
2022-11-25T03:19:51.325Z,983.9
2022-11-25T03:21:53.283Z,983.9
2022-11-25T03:23:54.939Z,983.9
2022-11-25T03:25:56.661Z,983.9
2022-11-25T03:27:57.830Z,983.8
2022-11-25T03:29:59.339Z,983.8
2022-11-25T03:32:04.248Z,983.8
2022-11-25T03:34:02.945Z,983.8
2022-11-25T03:36:04.718Z,983.8
2022-11-25T03:38:06.208Z,983.8
2022-11-25T03:42:09.758Z,983.7
2022-11-25T03:44:11.351Z,983.7
2022-11-25T03:46:13.161Z,983.7
2022-11-25T03:48:15.071Z,983.7
2022-11-25T03:50:16.970Z,983.7
2022-11-25T03:52:18.013Z,983.7
2022-11-25T03:54:19.544Z,983.7
2022-11-25T03:56:21.065Z,983.7
2022-11-25T03:58:22.291Z,983.7
2022-11-25T04:00:23.832Z,983.7
2022-11-25T04:02:25.021Z,983.7
2022-11-25T04:04:26.788Z,983.8
2022-11-25T04:06:28.149Z,983.8
2022-11-25T04:09:13.868Z,983.8
2022-11-25T04:11:15.577Z,983.8
2022-11-25T04:13:16.717Z,983.6
2022-11-25T04:15:18.079Z,983.7
2022-11-25T04:17:19.628Z,983.6
2022-11-25T04:19:20.769Z,983.6
2022-11-25T04:21:22.532Z,983.5
2022-11-25T04:23:24.258Z,983.5
2022-11-25T04:25:25.990Z,983.5
2022-11-25T04:27:27.916Z,983.5
2022-11-25T04:29:29.236Z,983.5
2022-11-25T04:31:30.296Z,983.6
2022-11-25T04:35:33.539Z,983.5
2022-11-25T04:37:35.321Z,983.6
2022-11-25T04:39:36.741Z,983.5
2022-11-25T04:41:38.119Z,983.6
2022-11-25T04:43:39.508Z,983.5
2022-11-25T04:46:06.678Z,983.6
2022-11-25T04:47:42.622Z,983.5
2022-11-25T04:49:44.494Z,983.6
2022-11-25T04:51:46.332Z,983.5
2022-11-25T04:53:48.241Z,983.6
2022-11-25T04:55:49.435Z,983.5
2022-11-25T04:57:50.868Z,983.6
2022-11-25T04:59:52.738Z,983.6
2022-11-25T05:01:54.022Z,983.6
2022-11-25T05:03:57.614Z,983.7
2022-11-25T05:05:57.852Z,983.7
2022-11-25T05:07:59.451Z,983.6
2022-11-25T05:10:01.243Z,983.6
2022-11-25T05:12:02.965Z,983.6
2022-11-25T05:14:04.406Z,983.6
2022-11-25T05:18:06.780Z,983.6
2022-11-25T05:20:08.712Z,983.6
2022-11-25T05:22:10.388Z,983.5
2022-11-25T05:24:12.393Z,983.6
2022-11-25T05:26:13.782Z,983.6
2022-11-25T05:28:15.540Z,983.6
2022-11-25T05:30:17.185Z,983.6
2022-11-25T05:32:18.994Z,983.6
2022-11-25T05:34:20.149Z,983.5
2022-11-25T05:36:21.334Z,983.5
2022-11-25T05:38:22.565Z,983.6
2022-11-25T05:40:23.715Z,983.5
2022-11-25T05:42:25.170Z,983.6
2022-11-25T05:44:26.666Z,983.5
2022-11-25T05:46:28.335Z,983.5
2022-11-25T05:48:29.575Z,983.6
2022-11-25T05:50:31.341Z,983.7
2022-11-25T05:52:33.093Z,983.7
2022-11-25T05:54:35.075Z,983.6
2022-11-25T05:56:36.624Z,983.6
2022-11-25T05:58:37.961Z,983.6
2022-11-25T06:00:39.859Z,983.6
2022-11-25T06:02:41.738Z,983.6
2022-11-25T06:04:43.224Z,983.6
2022-11-25T06:06:44.473Z,983.6
2022-11-25T06:08:45.745Z,983.5
2022-11-25T06:10:47.074Z,983.6
2022-11-25T06:12:48.491Z,983.6
2022-11-25T06:16:52.335Z,983.6
2022-11-25T06:18:54.251Z,983.6
2022-11-25T06:20:55.734Z,983.6
2022-11-25T06:22:57.470Z,983.7
2022-11-25T06:25:03.202Z,983.6
2022-11-25T06:27:00.107Z,983.8
2022-11-25T06:29:01.365Z,983.8
2022-11-25T06:31:02.722Z,983.8
2022-11-25T06:33:03.816Z,983.9
2022-11-25T06:35:04.986Z,983.8
2022-11-25T06:37:06.225Z,983.9
2022-11-25T06:39:07.541Z,983.9
2022-11-25T06:41:08.667Z,983.9
2022-11-25T06:43:10.619Z,983.9
2022-11-25T06:45:12.295Z,983.9
2022-11-25T06:47:14.297Z,983.9
2022-11-25T06:49:15.782Z,983.9
2022-11-25T06:51:17.215Z,983.9
2022-11-25T06:53:23.907Z,983.9
2022-11-25T06:55:20.674Z,984
2022-11-25T06:59:23.143Z,984
2022-11-25T07:01:24.297Z,984
2022-11-25T07:03:26.156Z,984.1
2022-11-25T07:05:28.144Z,984.1
2022-11-25T07:07:29.608Z,984.2
2022-11-25T07:09:30.783Z,984.3
2022-11-25T07:11:32.769Z,984.3
2022-11-25T07:13:34.044Z,984.2
2022-11-25T07:15:35.364Z,984.3
2022-11-25T07:17:36.489Z,984.3
2022-11-25T07:19:38.370Z,984.4
2022-11-25T07:21:39.952Z,984.4
2022-11-25T07:23:41.769Z,984.3
2022-11-25T07:25:43.151Z,984.3
2022-11-25T07:27:44.395Z,984.3
2022-11-25T07:30:10.570Z,984.3
2022-11-25T07:31:47.979Z,984.3
2022-11-25T07:33:49.498Z,984.4
2022-11-25T07:35:50.828Z,984.5
2022-11-25T07:37:52.700Z,984.5
2022-11-25T07:39:54.660Z,984.5
2022-11-25T07:41:56.008Z,984.5
2022-11-25T07:43:57.658Z,984.5
2022-11-25T07:45:59.760Z,984.5
2022-11-25T07:48:01.577Z,984.5
2022-11-25T07:50:03.161Z,984.5
2022-11-25T07:52:05.088Z,984.4
2022-11-25T07:54:06.223Z,984.4
2022-11-25T07:56:07.311Z,984.3
2022-11-25T07:58:09.101Z,984.3
2022-11-25T08:00:10.303Z,984.3
2022-11-25T08:02:11.847Z,984.4
2022-11-25T08:04:16.569Z,984.2
2022-11-25T08:06:13.748Z,984.4
2022-11-25T08:08:14.811Z,984.4
2022-11-25T08:10:16.544Z,984.6
2022-11-25T08:14:18.922Z,984.7
2022-11-25T08:16:20.868Z,984.7
2022-11-25T08:18:22.326Z,984.7
2022-11-25T08:20:23.386Z,984.6
2022-11-25T08:22:25.163Z,984.6
2022-11-25T08:24:26.150Z,984.5
2022-11-25T08:26:27.924Z,984.5
2022-11-25T08:28:29.788Z,984.5
2022-11-25T08:30:30.829Z,984.6
2022-11-25T08:32:32.573Z,984.5
2022-11-25T08:34:34.186Z,984.5
2022-11-25T08:36:35.889Z,984.6
2022-11-25T08:38:36.877Z,984.6
2022-11-25T08:40:38.118Z,984.5
2022-11-25T08:42:39.203Z,984.7
2022-11-25T08:44:40.477Z,984.7
2022-11-25T08:46:41.916Z,984.7
2022-11-25T08:50:45.197Z,984.7
2022-11-25T08:52:46.900Z,984.6
2022-11-25T08:54:47.902Z,984.7
2022-11-25T08:56:49.305Z,984.7
2022-11-25T08:58:51.030Z,984.7
2022-11-25T09:00:52.810Z,984.7
2022-11-25T09:02:54.200Z,984.7
2022-11-25T09:04:55.703Z,984.7
2022-11-25T09:06:56.691Z,984.7
2022-11-25T09:08:58.585Z,984.7
2022-11-25T09:10:59.870Z,984.7
2022-11-25T09:13:01.573Z,984.7
2022-11-25T09:15:03.247Z,984.7
2022-11-25T09:17:04.552Z,984.7
2022-11-25T09:19:06.171Z,984.7
2022-11-25T09:23:08.231Z,984.7
2022-11-25T09:25:09.924Z,984.8
2022-11-25T09:27:11.162Z,984.7
2022-11-25T09:29:12.250Z,984.7
2022-11-25T09:33:14.686Z,984.7
2022-11-25T09:35:16.155Z,984.7
2022-11-25T09:37:17.954Z,984.7
2022-11-25T09:39:19.539Z,984.6
2022-11-25T09:41:21.129Z,984.6
2022-11-25T09:43:22.609Z,984.7
2022-11-25T09:45:24.475Z,984.6
2022-11-25T09:47:26.280Z,984.7
2022-11-25T09:49:27.571Z,984.7
2022-11-25T09:51:28.670Z,984.9
2022-11-25T09:53:29.796Z,984.9
2022-11-25T09:55:30.764Z,984.9
2022-11-25T09:57:32.511Z,984.8
2022-11-25T09:59:33.684Z,984.9
2022-11-25T10:01:34.766Z,984.8
2022-11-25T10:03:36.582Z,984.8
2022-11-25T10:05:37.937Z,984.9
2022-11-25T10:07:39.198Z,984.8
2022-11-25T10:09:40.668Z,984.9
2022-11-25T10:11:41.995Z,984.8
2022-11-25T10:13:43.816Z,984.8
2022-11-25T10:15:45.438Z,984.9
2022-11-25T10:17:47.282Z,984.8
2022-11-25T10:21:49.761Z,984.8
2022-11-25T10:23:51.441Z,984.8
2022-11-25T10:25:53.168Z,985
2022-11-25T10:27:54.905Z,984.8
2022-11-25T10:29:56.156Z,984.8
2022-11-25T10:31:57.423Z,984.7
2022-11-25T10:33:58.661Z,984.8
2022-11-25T10:35:59.865Z,984.8
2022-11-25T10:38:00.951Z,984.8
2022-11-25T10:40:02.785Z,984.8
2022-11-25T10:42:04.602Z,984.8
2022-11-25T10:44:06.366Z,984.7
2022-11-25T10:46:07.773Z,984.8
2022-11-25T10:48:09.459Z,984.8
2022-11-25T10:50:11.387Z,984.8
2022-11-25T10:52:13.194Z,984.8
2022-11-25T10:54:58.350Z,984.9
2022-11-25T10:56:59.345Z,984.9
2022-11-25T10:59:00.760Z,985
2022-11-25T11:01:02.101Z,984.9
2022-11-25T11:03:03.343Z,984.9
2022-11-25T11:05:05.029Z,985
2022-11-25T11:07:05.972Z,985.1
2022-11-25T11:09:07.676Z,985.1
2022-11-25T11:11:09.085Z,985
2022-11-25T11:15:11.721Z,985.1
2022-11-25T11:17:13.542Z,985.1
2022-11-25T11:19:14.642Z,985.1
2022-11-25T11:21:15.608Z,985.1
2022-11-25T11:23:16.935Z,985.1
2022-11-25T11:25:18.210Z,985.1
2022-11-25T11:27:19.674Z,985.2
2022-11-25T11:29:21.107Z,985.1
2022-11-25T11:31:22.543Z,985.1
2022-11-25T11:33:23.828Z,985.1
2022-11-25T11:35:25.119Z,985.2
2022-11-25T11:37:26.206Z,985.2
2022-11-25T11:41:29.045Z,985.1
2022-11-25T11:43:30.666Z,985.2
2022-11-25T11:45:32.251Z,985.2
2022-11-25T11:47:34.040Z,985.2
2022-11-25T11:51:37.623Z,985.3
2022-11-25T11:53:38.615Z,985.4
2022-11-25T11:55:40.062Z,985.4
2022-11-25T11:57:41.497Z,985.4
2022-11-25T11:59:43.260Z,985.3
2022-11-25T12:01:45.200Z,985.3
2022-11-25T12:03:50.215Z,985.4
2022-11-25T12:05:48.336Z,985.4
2022-11-25T12:07:49.495Z,985.4
2022-11-25T12:09:50.515Z,985.5
2022-11-25T12:11:52.305Z,985.5
2022-11-25T12:13:57.922Z,985.5
2022-11-25T12:15:55.322Z,985.5
2022-11-25T12:17:57.165Z,985.5
2022-11-25T12:19:58.700Z,985.6
2022-11-25T12:21:59.762Z,985.5
2022-11-25T12:24:01.124Z,985.6
2022-11-25T12:26:02.876Z,985.7
2022-11-25T12:28:04.260Z,985.6
2022-11-25T12:30:05.271Z,985.6
2022-11-25T12:32:06.364Z,985.6
2022-11-25T12:34:08.246Z,985.6
2022-11-25T12:36:09.140Z,985.6
2022-11-25T12:40:12.623Z,985.7
2022-11-25T12:42:14.185Z,985.8
2022-11-25T12:44:15.617Z,985.8
2022-11-25T12:46:17.019Z,985.8
2022-11-25T12:48:21.390Z,985.8
2022-11-25T12:50:19.895Z,985.8
2022-11-25T12:52:21.750Z,985.9
2022-11-25T12:54:22.833Z,986
2022-11-25T12:56:23.782Z,985.9
2022-11-25T12:58:25.539Z,986
2022-11-25T13:00:41.314Z,985.9
2022-11-25T13:02:27.965Z,986.1
2022-11-25T13:04:28.877Z,986
2022-11-25T13:06:30.616Z,986
2022-11-25T13:08:32.092Z,986.1
2022-11-25T13:10:33.750Z,986
2022-11-25T13:12:35.205Z,986
2022-11-25T13:14:36.802Z,986.1
2022-11-25T13:16:37.515Z,986
2022-11-25T13:18:38.268Z,986
2022-11-25T13:20:39.289Z,986.2
2022-11-25T13:22:40.974Z,986.2
2022-11-25T13:24:42.101Z,986.1
2022-11-25T13:26:43.116Z,986.1
2022-11-25T13:28:45.025Z,986.2
2022-11-25T13:30:46.121Z,986.1
2022-11-25T13:32:47.831Z,986.1
2022-11-25T13:34:49.404Z,986.1
2022-11-25T13:36:50.546Z,986.2
2022-11-25T13:38:52.245Z,986.3
2022-11-25T13:40:53.727Z,986.2
2022-11-25T13:42:54.766Z,986.3
2022-11-25T13:44:56.441Z,986.3
2022-11-25T13:46:57.688Z,986.3
2022-11-25T13:48:58.781Z,986.4
2022-11-25T13:51:11.583Z,986.3
2022-11-25T13:53:02.063Z,986.4
2022-11-25T13:55:03.662Z,986.6
2022-11-25T13:57:04.795Z,986.6
2022-11-25T13:59:06.344Z,986.5
2022-11-25T14:01:07.781Z,986.5
2022-11-25T14:05:11.347Z,986.7
2022-11-25T14:07:17.059Z,986.8
2022-11-25T14:09:13.623Z,986.8
2022-11-25T14:11:14.821Z,986.8
2022-11-25T14:15:17.897Z,986.9
2022-11-25T14:17:19.523Z,986.9
2022-11-25T14:19:49.915Z,986.9
2022-11-25T14:21:22.903Z,986.9
2022-11-25T14:23:24.509Z,987
2022-11-25T14:25:26.198Z,987
2022-11-25T14:27:28.016Z,987
2022-11-25T14:29:29.536Z,987.1
2022-11-25T14:31:31.009Z,987.1
2022-11-25T14:33:31.953Z,987.1
2022-11-25T14:35:33.242Z,987.1
2022-11-25T14:37:35.109Z,987.2
2022-11-25T14:39:36.696Z,987.1
2022-11-25T14:41:37.921Z,987.2
2022-11-25T14:43:38.942Z,987.1
2022-11-25T14:45:40.687Z,987.2
2022-11-25T14:47:41.890Z,987.2
2022-11-25T14:49:49.108Z,987.2
2022-11-25T14:51:45.046Z,987.3
2022-11-25T14:53:47.766Z,987.1
2022-11-25T14:57:49.550Z,987.3
2022-11-25T14:59:50.815Z,987.3
2022-11-25T15:01:52.733Z,987.3
2022-11-25T15:03:54.357Z,987.4
2022-11-25T15:05:55.433Z,987.4
2022-11-25T15:07:56.607Z,987.5
2022-11-25T15:09:57.496Z,987.5
2022-11-25T15:11:59.218Z,987.4
2022-11-25T15:14:00.682Z,987.4
2022-11-25T15:16:02.181Z,987.5
2022-11-25T15:18:03.690Z,987.5
2022-11-25T15:20:04.816Z,987.5
2022-11-25T15:22:22.294Z,987.6
2022-11-25T15:24:08.039Z,987.6
2022-11-25T15:26:09.351Z,987.7
2022-11-25T15:28:10.794Z,987.7
2022-11-25T15:30:15.521Z,987.8
2022-11-25T15:32:14.310Z,987.8
2022-11-25T15:34:15.709Z,987.9
2022-11-25T15:36:16.817Z,987.9
2022-11-25T15:38:18.730Z,987.8
2022-11-25T15:40:19.701Z,987.9
2022-11-25T15:42:20.763Z,987.9
2022-11-25T15:44:22.503Z,988
2022-11-25T15:46:24.278Z,988
2022-11-25T15:48:25.779Z,988
2022-11-25T15:50:27.193Z,987.9
2022-11-25T15:52:28.435Z,988
2022-11-25T15:54:30.161Z,988
2022-11-25T15:56:31.381Z,988
2022-11-25T15:58:33.173Z,988
2022-11-25T16:02:35.381Z,988
2022-11-25T16:04:36.957Z,987.9
2022-11-25T16:06:38.861Z,987.9
2022-11-25T16:08:40.268Z,987.9
2022-11-25T16:10:41.768Z,988
2022-11-25T16:12:43.268Z,988
2022-11-25T16:14:44.624Z,988.2
2022-11-25T16:16:46.055Z,988.1
2022-11-25T16:18:47.505Z,988.1
2022-11-25T16:20:49.451Z,988.1
2022-11-25T16:22:50.545Z,988.2
2022-11-25T16:24:51.907Z,988.1
2022-11-25T16:26:53.197Z,988.1
2022-11-25T16:28:54.845Z,988.2
2022-11-25T16:30:59.071Z,988.2
2022-11-25T16:32:57.343Z,988.2
2022-11-25T16:34:58.806Z,988.3
2022-11-25T16:36:59.843Z,988.2
2022-11-25T16:39:01.238Z,988.3
2022-11-25T16:41:02.565Z,988.4
2022-11-25T16:43:03.861Z,988.4
2022-11-25T16:45:05.692Z,988.5
2022-11-25T16:47:06.844Z,988.5
2022-11-25T16:49:08.758Z,988.5
2022-11-25T16:51:10.220Z,988.6
2022-11-25T16:53:11.901Z,988.6
2022-11-25T16:55:12.914Z,988.5
2022-11-25T16:57:13.905Z,988.6
2022-11-25T16:59:15.696Z,988.6
2022-11-25T17:01:17.606Z,988.5
2022-11-25T17:03:18.696Z,988.6
2022-11-25T17:05:19.773Z,988.6
2022-11-25T17:07:33.375Z,988.6
2022-11-25T17:09:22.195Z,988.7
2022-11-25T17:11:23.473Z,988.6
2022-11-25T17:13:24.958Z,988.7
2022-11-25T17:17:28.451Z,988.8
2022-11-25T17:19:29.462Z,988.8
2022-11-25T17:21:31.196Z,988.8
2022-11-25T17:23:32.506Z,988.8
2022-11-25T17:27:35.327Z,989
2022-11-25T17:29:36.895Z,988.9
2022-11-25T17:31:38.881Z,989
2022-11-25T17:33:40.694Z,989
2022-11-25T17:35:42.185Z,989
2022-11-25T17:37:43.388Z,989.1
2022-11-25T17:38:27.225Z,989
2022-11-25T17:42:29.676Z,989.1
2022-11-25T17:44:31.388Z,989.1
2022-11-25T17:46:32.744Z,989.2
2022-11-25T17:48:33.870Z,989.2
2022-11-25T17:50:35.228Z,989.2
2022-11-25T17:52:36.934Z,989.1
2022-11-25T17:54:38.257Z,989.2
2022-11-25T17:56:39.205Z,989.2
2022-11-25T17:58:40.330Z,989.3
2022-11-25T18:00:41.331Z,989.3
2022-11-25T18:02:42.471Z,989.2
2022-11-25T18:04:44.239Z,989.3
2022-11-25T18:06:46.088Z,989.3
2022-11-25T18:08:47.550Z,989.2
2022-11-25T18:10:49.429Z,989.3
2022-11-25T18:12:50.807Z,989.2
2022-11-25T18:14:51.974Z,989.3
2022-11-25T18:16:53.595Z,989.3
2022-11-25T18:20:56.505Z,989.5
2022-11-25T18:22:57.645Z,989.4
2022-11-25T18:24:58.858Z,989.5
2022-11-25T18:27:00.596Z,989.5
2022-11-25T18:29:01.800Z,989.5
2022-11-25T18:31:03.645Z,989.5
2022-11-25T18:33:04.936Z,989.5
2022-11-25T18:35:06.203Z,989.6
2022-11-25T18:37:07.318Z,989.5
2022-11-25T18:39:08.787Z,989.6
2022-11-25T18:41:09.960Z,989.6
2022-11-25T18:43:11.584Z,989.7
2022-11-25T18:47:14.186Z,989.8
2022-11-25T18:49:15.342Z,989.8
2022-11-25T18:51:16.544Z,989.8
2022-11-25T18:53:18.451Z,989.9
2022-11-25T18:57:21.531Z,990
2022-11-25T18:59:23.292Z,989.9
2022-11-25T19:01:24.606Z,990
2022-11-25T19:03:25.648Z,990
2022-11-25T19:05:27.265Z,990
2022-11-25T19:07:28.971Z,990.1
2022-11-25T19:09:29.997Z,990
2022-11-25T19:11:31.397Z,990.1
2022-11-25T19:13:32.965Z,990.1
2022-11-25T19:15:34.779Z,990.2
2022-11-25T19:17:36.340Z,990.1
2022-11-25T19:19:37.572Z,990.1
2022-11-25T19:21:39.111Z,990.2
2022-11-25T19:23:40.239Z,990.3
2022-11-25T19:25:42.159Z,990.4
2022-11-25T19:27:43.570Z,990.4
2022-11-25T19:29:44.593Z,990.4
2022-11-25T19:31:45.711Z,990.5
2022-11-25T19:33:46.568Z,990.5
2022-11-25T19:35:47.790Z,990.6
2022-11-25T19:37:48.795Z,990.6
2022-11-25T19:39:50.550Z,990.5
2022-11-25T19:41:52.530Z,990.6
2022-11-25T19:45:55.160Z,990.8
2022-11-25T19:47:56.799Z,990.8
2022-11-25T19:49:58.297Z,990.9
2022-11-25T19:51:59.350Z,990.9
2022-11-25T19:54:01.198Z,990.8
2022-11-25T19:56:02.178Z,990.9
2022-11-25T19:58:04.020Z,990.9
2022-11-25T20:00:05.615Z,991
2022-11-25T20:02:06.984Z,990.9
2022-11-25T20:04:08.602Z,991
2022-11-25T20:06:10.481Z,991
2022-11-25T20:08:11.633Z,991.1
2022-11-25T20:10:12.950Z,991.1
2022-11-25T20:12:14.673Z,991.2
2022-11-25T20:14:16.546Z,991.2
2022-11-25T20:16:27.400Z,991.2
2022-11-25T20:18:20.278Z,991.2
2022-11-25T20:20:22.027Z,991.2
2022-11-25T20:22:23.573Z,991.2
2022-11-25T20:24:25.328Z,991.4
2022-11-25T20:28:28.146Z,991.4
2022-11-25T20:30:29.341Z,991.3
2022-11-25T20:32:30.850Z,991.4
2022-11-25T20:34:34.202Z,991.4
2022-11-25T20:36:33.935Z,991.5
2022-11-25T20:38:35.708Z,991.4
2022-11-25T20:40:37.493Z,991.5
2022-11-25T20:42:38.847Z,991.5
2022-11-25T20:44:39.989Z,991.5
2022-11-25T20:46:41.448Z,991.5
2022-11-25T20:48:42.795Z,991.5
2022-11-25T20:50:44.204Z,991.6
2022-11-25T20:52:45.888Z,991.6
2022-11-25T20:54:46.890Z,991.6
2022-11-25T20:56:48.389Z,991.7
2022-11-25T20:58:49.911Z,991.7
2022-11-25T21:00:55.628Z,991.7
2022-11-25T21:02:52.532Z,991.7
2022-11-25T21:04:53.588Z,991.7
2022-11-25T21:06:55.144Z,991.7
2022-11-25T21:08:56.995Z,991.8
2022-11-25T21:10:57.971Z,991.8
2022-11-25T21:12:59.274Z,991.8
2022-11-25T21:15:00.576Z,991.9
2022-11-25T21:17:01.679Z,991.9
2022-11-25T21:19:03.018Z,991.9
2022-11-25T21:21:04.669Z,992
2022-11-25T21:23:06.035Z,992
2022-11-25T21:27:12.785Z,992
2022-11-25T21:29:11.039Z,992
2022-11-25T21:31:12.773Z,992.1
2022-11-25T21:33:14.135Z,992.1
2022-11-25T21:35:16.101Z,992.2
2022-11-25T21:37:17.638Z,992.2
2022-11-25T21:39:19.356Z,992.2
2022-11-25T21:41:21.309Z,992.2
2022-11-25T21:43:23.140Z,992.3
2022-11-25T21:45:24.830Z,992.3
2022-11-25T21:47:26.488Z,992.2
2022-11-25T21:49:28.427Z,992.3
2022-11-25T21:51:30.031Z,992.3
2022-11-25T21:53:35.995Z,992.4
2022-11-25T21:55:33.328Z,992.4
2022-11-25T21:57:35.117Z,992.3
2022-11-25T21:59:36.545Z,992.4
2022-11-25T22:01:37.657Z,992.4
2022-11-25T22:03:39.083Z,992.4
2022-11-25T22:05:40.711Z,992.5
2022-11-25T22:09:43.987Z,992.6
2022-11-25T22:11:45.668Z,992.5
2022-11-25T22:13:46.767Z,992.5
2022-11-25T22:15:48.744Z,992.5
2022-11-25T22:17:50.241Z,992.6
2022-11-25T22:19:52.137Z,992.5
2022-11-25T22:21:53.637Z,992.6
2022-11-25T22:23:55.258Z,992.6
2022-11-25T22:25:56.708Z,992.6
2022-11-25T22:27:58.129Z,992.6
2022-11-25T22:29:59.640Z,992.6
2022-11-25T22:32:01.383Z,992.7
2022-11-25T22:34:02.925Z,992.7
2022-11-25T22:36:04.031Z,992.7
2022-11-25T22:38:05.016Z,992.7
2022-11-25T22:40:06.997Z,992.7
2022-11-25T22:42:07.991Z,992.7
2022-11-25T22:44:09.755Z,992.7
2022-11-25T22:46:10.940Z,992.8
2022-11-25T22:48:12.626Z,992.8
2022-11-25T22:50:13.765Z,992.9
2022-11-25T22:52:15.444Z,992.9
2022-11-25T22:54:17.007Z,992.8
2022-11-25T22:56:18.101Z,992.8
2022-11-25T22:58:19.710Z,992.8
2022-11-25T23:00:20.851Z,992.9
2022-11-25T23:02:22.238Z,992.9
2022-11-25T23:04:23.384Z,992.9
2022-11-25T23:06:25.156Z,992.9
2022-11-25T23:08:26.307Z,992.9
2022-11-25T23:10:27.884Z,992.8
2022-11-25T23:12:29.620Z,993
2022-11-25T23:14:31.435Z,993
2022-11-25T23:16:32.871Z,993
2022-11-25T23:18:38.087Z,993
2022-11-25T23:20:35.962Z,993.1
2022-11-25T23:22:37.559Z,992.9
2022-11-25T23:24:38.696Z,993
2022-11-25T23:28:41.777Z,992.9
2022-11-25T23:30:43.603Z,993.1
2022-11-25T23:32:45.198Z,993.2
2022-11-25T23:34:46.175Z,993
2022-11-25T23:36:47.585Z,993.1
2022-11-25T23:38:48.616Z,993.2
2022-11-25T23:40:49.641Z,993.2
2022-11-25T23:42:51.583Z,993.3
2022-11-25T23:44:53.428Z,993.2
2022-11-25T23:46:54.398Z,993.3
2022-11-25T23:48:55.826Z,993.2
2022-11-25T23:50:56.841Z,993.3
2022-11-25T23:52:57.950Z,993.3
2022-11-25T23:54:58.987Z,993.3
2022-11-25T23:57:00.807Z,993.3
2022-11-25T23:59:02.752Z,993.3
